createdAt,value
2018-12-17T00:00:37.584Z,25.50
2018-12-17T00:01:37.581Z,25.90
2018-12-17T00:02:37.536Z,22.60
2018-12-17T00:03:37.520Z,22.20
2018-12-17T00:04:37.510Z,24.40
2018-12-17T00:05:41.798Z,24.30
2018-12-17T00:06:37.487Z,23.20
2018-12-17T00:07:37.695Z,24.30
2018-12-17T00:08:37.469Z,26.90
2018-12-17T00:09:37.487Z,27.30
2018-12-17T00:10:37.446Z,23.20
2018-12-17T00:11:37.470Z,25.30
2018-12-17T00:12:37.429Z,21.90
2018-12-17T00:13:37.414Z,21.50
2018-12-17T00:14:37.431Z,18.50
2018-12-17T00:15:37.422Z,21.00
2018-12-17T00:16:37.381Z,20.70
2018-12-17T00:17:37.367Z,18.20
2018-12-17T00:18:37.358Z,17.50
2018-12-17T00:19:37.346Z,20.30
2018-12-17T00:20:37.336Z,16.30
2018-12-17T00:21:37.386Z,19.50
2018-12-17T00:22:37.315Z,18.60
2018-12-17T00:23:37.303Z,17.00
2018-12-17T00:24:37.293Z,18.90
2018-12-17T00:25:37.282Z,18.50
2018-12-17T00:26:37.274Z,16.90
2018-12-17T00:27:37.289Z,18.20
2018-12-17T00:28:37.251Z,17.60
2018-12-17T00:29:37.241Z,16.80
2018-12-17T00:30:37.230Z,15.80
2018-12-17T00:31:37.217Z,16.80
2018-12-17T00:32:37.205Z,19.30
2018-12-17T00:33:37.226Z,18.60
2018-12-17T00:34:37.191Z,22.40
2018-12-17T00:35:37.174Z,18.90
2018-12-17T00:36:37.161Z,20.50
2018-12-17T00:37:37.152Z,19.90
2018-12-17T00:38:37.142Z,21.00
2018-12-17T00:39:37.175Z,19.10
2018-12-17T00:40:37.121Z,21.40
2018-12-17T00:41:37.110Z,21.50
2018-12-17T00:42:37.105Z,19.40
2018-12-17T00:43:37.090Z,18.30
2018-12-17T00:44:37.077Z,19.60
2018-12-17T00:45:37.098Z,22.60
2018-12-17T00:46:37.052Z,25.20
2018-12-17T00:47:37.045Z,19.80
2018-12-17T00:48:37.031Z,18.70
2018-12-17T00:49:37.022Z,20.00
2018-12-17T00:50:37.010Z,18.80
2018-12-17T00:51:37.029Z,18.20
2018-12-17T00:52:36.989Z,20.10
2018-12-17T00:53:36.976Z,22.50
2018-12-17T00:54:36.970Z,23.00
2018-12-17T00:55:36.955Z,21.50
2018-12-17T00:56:36.946Z,23.30
2018-12-17T00:57:36.997Z,23.90
2018-12-17T00:58:36.925Z,22.10
2018-12-17T00:59:36.921Z,19.90
2018-12-17T01:00:36.902Z,19.80
2018-12-17T01:01:36.892Z,20.40
2018-12-17T01:02:36.879Z,21.60
2018-12-17T01:03:36.901Z,22.60
2018-12-17T01:04:36.858Z,21.30
2018-12-17T01:05:36.848Z,20.70
2018-12-17T01:06:36.865Z,21.50
2018-12-17T01:07:36.826Z,21.20
2018-12-17T01:08:36.817Z,19.50
2018-12-17T01:09:36.822Z,18.60
2018-12-17T01:10:36.797Z,17.50
2018-12-17T01:11:36.812Z,19.70
2018-12-17T01:12:36.773Z,19.70
2018-12-17T01:13:36.760Z,20.90
2018-12-17T01:14:36.750Z,21.90
2018-12-17T01:15:36.738Z,23.30
2018-12-17T01:16:36.764Z,21.50
2018-12-17T01:17:36.715Z,21.70
2018-12-17T01:18:36.713Z,25.20
2018-12-17T01:19:36.694Z,20.40
2018-12-17T01:20:36.714Z,23.40
2018-12-17T01:21:36.676Z,27.30
2018-12-17T01:22:36.708Z,25.10
2018-12-17T01:23:36.652Z,23.50
2018-12-17T01:24:36.643Z,23.60
2018-12-17T01:25:36.630Z,21.50
2018-12-17T01:26:36.619Z,24.50
2018-12-17T01:27:36.608Z,22.40
2018-12-17T01:28:36.630Z,19.10
2018-12-17T01:29:36.585Z,22.20
2018-12-17T01:30:36.576Z,20.40
2018-12-17T01:31:36.568Z,24.30
2018-12-17T01:32:36.554Z,21.20
2018-12-17T01:33:36.542Z,18.60
2018-12-17T01:34:36.563Z,18.90
2018-12-17T01:35:36.523Z,19.40
2018-12-17T01:36:36.511Z,17.90
2018-12-17T01:37:36.499Z,21.60
2018-12-17T01:38:36.488Z,19.50
2018-12-17T01:39:36.479Z,20.30
2018-12-17T01:40:36.674Z,22.30
2018-12-17T01:41:36.461Z,20.40
2018-12-17T01:42:36.444Z,18.90
2018-12-17T01:43:36.433Z,17.40
2018-12-17T01:44:36.458Z,15.80
2018-12-17T01:45:36.416Z,18.80
2018-12-17T01:46:36.404Z,21.90
2018-12-17T01:47:36.390Z,17.80
2018-12-17T01:48:36.383Z,19.20
2018-12-17T01:49:36.399Z,22.00
2018-12-17T01:50:36.360Z,20.50
2018-12-17T01:51:36.352Z,19.30
2018-12-17T01:52:36.335Z,22.80
2018-12-17T01:53:36.326Z,21.50
2018-12-17T01:54:36.317Z,21.60
2018-12-17T01:55:36.334Z,17.90
2018-12-17T01:56:36.292Z,17.40
2018-12-17T01:57:36.308Z,21.10
2018-12-17T01:58:36.271Z,20.30
2018-12-17T01:59:36.262Z,16.70
2018-12-17T02:00:36.250Z,15.90
2018-12-17T02:01:36.269Z,18.10
2018-12-17T02:02:36.226Z,19.90
2018-12-17T02:03:36.217Z,18.20
2018-12-17T02:04:36.207Z,16.50
2018-12-17T02:05:36.195Z,17.30
2018-12-17T02:06:36.184Z,15.40
2018-12-17T02:07:36.203Z,15.80
2018-12-17T02:08:36.176Z,17.90
2018-12-17T02:09:36.418Z,14.40
2018-12-17T02:10:36.142Z,18.80
2018-12-17T02:11:36.131Z,16.30
2018-12-17T02:12:36.119Z,17.80
2018-12-17T02:13:36.109Z,20.00
2018-12-17T02:14:36.099Z,18.70
2018-12-17T02:15:36.116Z,17.20
2018-12-17T02:16:36.076Z,17.70
2018-12-17T02:17:36.064Z,17.00
2018-12-17T02:18:36.056Z,20.00
2018-12-17T02:19:36.044Z,20.90
2018-12-17T02:20:36.034Z,18.50
2018-12-17T02:21:36.053Z,20.90
2018-12-17T02:22:36.011Z,22.40
2018-12-17T02:23:36.003Z,19.70
2018-12-17T02:24:35.988Z,19.00
2018-12-17T02:25:35.977Z,19.20
2018-12-17T02:26:35.967Z,21.30
2018-12-17T02:27:35.986Z,25.10
2018-12-17T02:28:36.379Z,20.30
2018-12-17T02:29:35.933Z,22.30
2018-12-17T02:30:35.923Z,20.10
2018-12-17T02:31:35.911Z,25.60
2018-12-17T02:32:35.904Z,22.70
2018-12-17T02:33:35.921Z,22.50
2018-12-17T02:34:35.916Z,23.40
2018-12-17T02:35:35.870Z,23.10
2018-12-17T02:36:35.891Z,24.60
2018-12-17T02:37:35.852Z,29.50
2018-12-17T02:38:35.835Z,24.50
2018-12-17T02:39:35.824Z,24.20
2018-12-17T02:40:35.813Z,24.10
2018-12-17T02:41:35.832Z,27.70
2018-12-17T02:42:35.796Z,23.90
2018-12-17T02:43:35.812Z,24.30
2018-12-17T02:44:35.770Z,26.30
2018-12-17T02:45:35.761Z,23.70
2018-12-17T02:46:35.750Z,24.20
2018-12-17T02:47:35.740Z,21.10
2018-12-17T02:48:35.764Z,21.40
2018-12-17T02:49:35.716Z,22.10
2018-12-17T02:50:35.707Z,22.10
2018-12-17T02:51:35.724Z,24.40
2018-12-17T02:52:35.711Z,22.70
2018-12-17T02:53:35.670Z,25.90
2018-12-17T02:54:35.933Z,22.60
2018-12-17T02:55:35.653Z,23.40
2018-12-17T02:56:35.643Z,22.60
2018-12-17T02:57:35.628Z,23.10
2018-12-17T02:58:35.617Z,23.10
2018-12-17T02:59:35.607Z,22.80
2018-12-17T03:00:35.649Z,24.00
2018-12-17T03:01:35.585Z,23.80
2018-12-17T03:02:35.577Z,23.00
2018-12-17T03:03:35.563Z,20.40
2018-12-17T03:04:35.551Z,22.70
2018-12-17T03:05:35.544Z,18.90
2018-12-17T03:06:35.578Z,21.00
2018-12-17T03:07:35.519Z,21.20
2018-12-17T03:08:35.574Z,21.00
2018-12-17T03:09:35.499Z,23.90
2018-12-17T03:10:35.489Z,21.50
2018-12-17T03:11:35.516Z,20.70
2018-12-17T03:12:35.464Z,21.50
2018-12-17T03:13:35.566Z,23.50
2018-12-17T03:14:35.446Z,20.40
2018-12-17T03:15:35.433Z,20.50
2018-12-17T03:16:35.422Z,22.10
2018-12-17T03:17:35.411Z,24.20
2018-12-17T03:18:35.400Z,20.30
2018-12-17T03:19:35.449Z,21.80
2018-12-17T03:20:35.377Z,23.10
2018-12-17T03:21:35.368Z,23.90
2018-12-17T03:22:35.376Z,21.60
2018-12-17T03:23:35.347Z,19.80
2018-12-17T03:24:35.337Z,21.50
2018-12-17T03:25:35.372Z,22.90
2018-12-17T03:26:35.314Z,21.80
2018-12-17T03:27:35.301Z,23.80
2018-12-17T03:28:35.293Z,22.50
2018-12-17T03:29:35.287Z,20.10
2018-12-17T03:30:35.311Z,22.00
2018-12-17T03:31:35.259Z,22.70
2018-12-17T03:32:35.250Z,23.30
2018-12-17T03:33:35.236Z,24.80
2018-12-17T03:34:35.226Z,23.00
2018-12-17T03:35:35.215Z,24.70
2018-12-17T03:36:35.252Z,24.20
2018-12-17T03:37:35.194Z,25.70
2018-12-17T03:38:35.186Z,24.40
2018-12-17T03:39:35.218Z,25.40
2018-12-17T03:40:35.162Z,23.40
2018-12-17T03:41:35.150Z,26.10
2018-12-17T03:42:35.186Z,22.30
2018-12-17T03:43:35.176Z,25.20
2018-12-17T03:44:35.117Z,24.00
2018-12-17T03:45:35.108Z,23.10
2018-12-17T03:46:35.095Z,23.30
2018-12-17T03:47:35.086Z,25.20
2018-12-17T03:48:35.076Z,25.20
2018-12-17T03:49:35.126Z,22.40
2018-12-17T03:50:35.060Z,25.40
2018-12-17T03:51:35.042Z,26.20
2018-12-17T03:52:35.034Z,23.60
2018-12-17T03:53:35.018Z,22.50
2018-12-17T03:54:35.009Z,23.10
2018-12-17T03:55:35.047Z,23.30
2018-12-17T03:56:34.990Z,23.00
2018-12-17T03:57:34.975Z,23.60
2018-12-17T03:58:34.965Z,20.80
2018-12-17T03:59:34.954Z,25.30
2018-12-17T04:00:34.946Z,22.20
2018-12-17T04:01:34.980Z,24.90
2018-12-17T04:02:34.960Z,24.20
2018-12-17T04:03:34.909Z,22.60
2018-12-17T04:04:34.900Z,25.30
2018-12-17T04:05:34.937Z,23.10
2018-12-17T04:06:34.877Z,25.00
2018-12-17T04:07:34.911Z,24.40
2018-12-17T04:08:34.855Z,24.40
2018-12-17T04:09:34.846Z,21.60
2018-12-17T04:10:34.834Z,24.50
2018-12-17T04:11:34.824Z,21.90
2018-12-17T04:12:34.812Z,24.10
2018-12-17T04:13:34.845Z,25.70
2018-12-17T04:14:34.791Z,25.00
2018-12-17T04:15:34.781Z,25.50
2018-12-17T04:16:34.779Z,25.00
2018-12-17T04:17:34.757Z,24.80
2018-12-17T04:18:34.747Z,23.80
2018-12-17T04:19:34.778Z,23.20
2018-12-17T04:20:34.729Z,24.70
2018-12-17T04:21:34.714Z,25.60
2018-12-17T04:22:34.704Z,25.10
2018-12-17T04:23:34.693Z,24.40
2018-12-17T04:24:34.682Z,24.50
2018-12-17T04:25:34.720Z,28.40
2018-12-17T04:26:34.660Z,27.80
2018-12-17T04:27:34.689Z,24.30
2018-12-17T04:28:34.639Z,22.50
2018-12-17T04:29:34.626Z,23.20
2018-12-17T04:30:34.621Z,23.50
2018-12-17T04:31:34.606Z,21.70
2018-12-17T04:32:34.596Z,22.90
2018-12-17T04:33:34.622Z,24.00
2018-12-17T04:34:34.576Z,24.70
2018-12-17T04:35:34.563Z,22.70
2018-12-17T04:36:34.554Z,21.60
2018-12-17T04:37:34.580Z,21.00
2018-12-17T04:38:34.541Z,21.20
2018-12-17T04:39:34.520Z,20.40
2018-12-17T04:40:34.549Z,23.20
2018-12-17T04:41:34.497Z,21.70
2018-12-17T04:42:34.487Z,19.90
2018-12-17T04:43:34.478Z,21.00
2018-12-17T04:44:34.464Z,21.30
2018-12-17T04:45:34.454Z,20.60
2018-12-17T04:46:34.485Z,21.00
2018-12-17T04:47:34.432Z,19.60
2018-12-17T04:48:34.472Z,21.70
2018-12-17T04:49:34.410Z,21.00
2018-12-17T04:50:34.449Z,20.90
2018-12-17T04:51:34.391Z,20.70
2018-12-17T04:52:34.381Z,23.30
2018-12-17T04:53:34.417Z,20.70
2018-12-17T04:54:34.362Z,22.60
2018-12-17T04:55:34.344Z,20.40
2018-12-17T04:56:34.335Z,20.00
2018-12-17T04:57:34.367Z,19.70
2018-12-17T04:58:34.314Z,21.90
2018-12-17T04:59:34.302Z,20.50
2018-12-17T05:00:34.290Z,21.90
2018-12-17T05:01:34.282Z,18.80
2018-12-17T05:02:34.271Z,17.50
2018-12-17T05:03:34.304Z,20.50
2018-12-17T05:04:34.246Z,21.00
2018-12-17T05:05:34.284Z,16.80
2018-12-17T05:06:34.228Z,22.70
2018-12-17T05:07:34.213Z,19.70
2018-12-17T05:08:34.229Z,19.40
2018-12-17T05:09:34.196Z,19.40
2018-12-17T05:10:34.224Z,23.30
2018-12-17T05:11:34.171Z,21.20
2018-12-17T05:12:34.160Z,19.90
2018-12-17T05:13:34.151Z,18.80
2018-12-17T05:14:34.139Z,21.50
2018-12-17T05:15:34.130Z,20.40
2018-12-17T05:16:34.159Z,20.50
2018-12-17T05:17:34.105Z,20.10
2018-12-17T05:18:34.097Z,21.50
2018-12-17T05:19:34.086Z,21.50
2018-12-17T05:20:34.122Z,21.00
2018-12-17T05:21:34.062Z,20.90
2018-12-17T05:22:34.056Z,20.60
2018-12-17T05:23:34.050Z,21.00
2018-12-17T05:24:34.036Z,20.70
2018-12-17T05:25:34.019Z,18.60
2018-12-17T05:26:34.084Z,19.50
2018-12-17T05:27:33.997Z,18.70
2018-12-17T05:28:33.989Z,18.90
2018-12-17T05:29:34.030Z,21.30
2018-12-17T05:30:33.965Z,19.00
2018-12-17T05:31:33.957Z,19.70
2018-12-17T05:32:33.948Z,21.10
2018-12-17T05:33:33.933Z,21.40
2018-12-17T05:34:33.930Z,22.30
2018-12-17T05:35:33.951Z,19.70
2018-12-17T05:36:33.938Z,20.60
2018-12-17T05:37:33.943Z,24.70
2018-12-17T05:38:33.878Z,20.30
2018-12-17T05:39:33.873Z,20.90
2018-12-17T05:40:33.856Z,20.90
2018-12-17T05:41:33.844Z,20.30
2018-12-17T05:42:33.837Z,21.80
2018-12-17T05:43:33.863Z,19.10
2018-12-17T05:44:33.813Z,19.30
2018-12-17T05:45:33.807Z,21.20
2018-12-17T05:46:33.790Z,21.90
2018-12-17T05:47:33.782Z,18.40
2018-12-17T05:48:33.770Z,22.70
2018-12-17T05:49:33.804Z,24.10
2018-12-17T05:50:33.748Z,19.10
2018-12-17T05:51:33.737Z,21.20
2018-12-17T05:52:33.725Z,23.10
2018-12-17T05:53:33.814Z,20.40
2018-12-17T05:54:33.704Z,20.10
2018-12-17T05:55:33.694Z,21.60
2018-12-17T05:56:33.682Z,20.80
2018-12-17T05:57:33.672Z,18.80
2018-12-17T05:58:33.661Z,21.00
2018-12-17T05:59:33.708Z,19.10
2018-12-17T06:00:33.639Z,22.80
2018-12-17T06:01:33.639Z,20.20
2018-12-17T06:02:33.620Z,22.80
2018-12-17T06:03:33.610Z,21.90
2018-12-17T06:04:33.597Z,20.90
2018-12-17T06:05:33.639Z,21.80
2018-12-17T06:06:33.575Z,19.30
2018-12-17T06:07:33.569Z,21.00
2018-12-17T06:08:33.563Z,21.00
2018-12-17T06:09:33.553Z,19.80
2018-12-17T06:10:33.545Z,21.60
2018-12-17T06:11:33.565Z,18.10
2018-12-17T06:12:33.509Z,21.00
2018-12-17T06:13:33.500Z,18.90
2018-12-17T06:14:33.498Z,19.90
2018-12-17T06:15:33.479Z,22.00
2018-12-17T06:16:33.465Z,22.50
2018-12-17T06:17:33.664Z,21.00
2018-12-17T06:18:33.454Z,18.20
2018-12-17T06:19:33.435Z,21.70
2018-12-17T06:20:33.429Z,21.60
2018-12-17T06:21:33.674Z,21.70
2018-12-17T06:22:33.456Z,17.80
2018-12-17T06:23:33.450Z,19.40
2018-12-17T06:24:33.393Z,20.60
2018-12-17T06:25:33.378Z,19.60
2018-12-17T06:26:33.359Z,19.30
2018-12-17T06:27:36.789Z,23.30
2018-12-17T06:28:33.339Z,22.10
2018-12-17T06:29:35.672Z,22.80
2018-12-17T06:30:33.365Z,19.90
2018-12-17T06:31:33.318Z,19.40
2018-12-17T06:32:33.295Z,23.20
2018-12-17T06:33:33.299Z,21.00
2018-12-17T06:34:33.276Z,22.50
2018-12-17T06:35:33.316Z,20.70
2018-12-17T06:36:33.254Z,21.40
2018-12-17T06:37:33.303Z,21.60
2018-12-17T06:38:33.239Z,22.90
2018-12-17T06:39:33.219Z,22.20
2018-12-17T06:40:33.207Z,25.10
2018-12-17T06:41:33.197Z,24.50
2018-12-17T06:42:33.209Z,25.90
2018-12-17T06:43:33.214Z,24.40
2018-12-17T06:44:33.249Z,22.90
2018-12-17T06:45:33.159Z,26.50
2018-12-17T06:46:33.144Z,26.50
2018-12-17T06:47:33.138Z,24.10
2018-12-17T06:48:33.163Z,24.40
2018-12-17T06:49:33.116Z,25.20
2018-12-17T06:50:33.105Z,22.00
2018-12-17T06:51:33.094Z,20.30
2018-12-17T06:52:33.080Z,20.60
2018-12-17T06:53:33.095Z,22.80
2018-12-17T06:54:33.114Z,20.60
2018-12-17T06:55:33.043Z,21.90
2018-12-17T06:56:33.039Z,18.80
2018-12-17T06:57:33.038Z,22.50
2018-12-17T06:58:33.028Z,18.90
2018-12-17T06:59:33.004Z,17.30
2018-12-17T07:00:33.041Z,18.50
2018-12-17T07:01:32.997Z,24.00
2018-12-17T07:02:32.973Z,22.80
2018-12-17T07:03:33.008Z,22.60
2018-12-17T07:04:33.007Z,23.50
2018-12-17T07:05:32.941Z,24.30
2018-12-17T07:06:32.945Z,23.30
2018-12-17T07:07:32.977Z,25.10
2018-12-17T07:08:32.907Z,21.50
2018-12-17T07:09:32.898Z,23.50
2018-12-17T07:10:32.925Z,25.50
2018-12-17T07:11:32.875Z,21.40
2018-12-17T07:12:32.890Z,23.20
2018-12-17T07:13:32.891Z,22.00
2018-12-17T07:14:36.442Z,26.40
2018-12-17T07:15:32.839Z,22.50
2018-12-17T07:16:32.821Z,21.90
2018-12-17T07:17:32.922Z,19.60
2018-12-17T07:18:32.807Z,22.30
2018-12-17T07:19:32.784Z,21.00
2018-12-17T07:20:32.821Z,19.40
2018-12-17T07:21:32.769Z,19.60
2018-12-17T07:22:32.762Z,22.60
2018-12-17T07:23:32.752Z,17.40
2018-12-17T07:24:32.734Z,18.30
2018-12-17T07:25:32.826Z,21.90
2018-12-17T07:26:32.723Z,18.60
2018-12-17T07:27:32.700Z,19.20
2018-12-17T07:28:32.706Z,19.30
2018-12-17T07:29:32.731Z,18.50
2018-12-17T07:30:32.716Z,19.60
2018-12-17T07:31:32.756Z,17.30
2018-12-17T07:32:32.700Z,19.10
2018-12-17T07:33:32.640Z,19.20
2018-12-17T07:34:32.638Z,19.10
2018-12-17T07:35:32.613Z,19.10
2018-12-17T07:36:32.608Z,18.70
2018-12-17T07:37:32.648Z,16.60
2018-12-17T07:38:32.585Z,18.10
2018-12-17T07:39:32.607Z,17.70
2018-12-17T07:40:32.561Z,20.30
2018-12-17T07:41:32.552Z,21.10
2018-12-17T07:42:32.558Z,17.50
2018-12-17T07:43:32.578Z,17.80
2018-12-17T07:44:32.615Z,18.40
2018-12-17T07:45:32.525Z,18.00
2018-12-17T07:46:32.510Z,19.80
2018-12-17T07:47:32.498Z,21.60
2018-12-17T07:48:32.480Z,21.60
2018-12-17T07:49:32.463Z,20.70
2018-12-17T07:50:32.493Z,21.10
2018-12-17T07:51:32.469Z,22.10
2018-12-17T07:52:32.441Z,21.10
2018-12-17T07:53:32.420Z,22.50
2018-12-17T07:54:32.410Z,25.10
2018-12-17T07:55:32.496Z,22.80
2018-12-17T07:56:32.396Z,24.90
2018-12-17T07:57:32.440Z,23.20
2018-12-17T07:58:32.378Z,22.10
2018-12-17T07:59:32.361Z,20.40
2018-12-17T08:00:32.347Z,22.00
2018-12-17T08:01:32.334Z,23.80
2018-12-17T08:02:32.323Z,22.10
2018-12-17T08:03:32.386Z,23.60
2018-12-17T08:04:32.350Z,20.70
2018-12-17T08:05:32.404Z,22.80
2018-12-17T08:06:32.306Z,22.20
2018-12-17T08:07:32.295Z,19.80
2018-12-17T08:08:35.449Z,21.70
2018-12-17T08:09:32.263Z,21.40
2018-12-17T08:10:32.235Z,23.20
2018-12-17T08:11:32.279Z,25.00
2018-12-17T08:12:32.224Z,23.00
2018-12-17T08:13:32.214Z,25.20
2018-12-17T08:14:32.244Z,21.70
2018-12-17T08:15:32.184Z,23.70
2018-12-17T08:16:32.175Z,22.10
2018-12-17T08:17:32.163Z,20.70
2018-12-17T08:18:32.259Z,23.10
2018-12-17T08:19:32.142Z,21.30
2018-12-17T08:20:32.178Z,21.30
2018-12-17T08:21:32.174Z,24.10
2018-12-17T08:22:32.107Z,22.50
2018-12-17T08:23:32.104Z,21.10
2018-12-17T08:24:32.369Z,22.40
2018-12-17T08:25:32.075Z,20.90
2018-12-17T08:26:32.064Z,20.50
2018-12-17T08:27:32.066Z,22.90
2018-12-17T08:28:32.044Z,23.80
2018-12-17T08:29:32.043Z,25.30
2018-12-17T08:30:32.147Z,26.00
2018-12-17T08:31:32.011Z,20.70
2018-12-17T08:32:32.006Z,22.70
2018-12-17T08:33:32.013Z,26.00
2018-12-17T08:34:32.007Z,24.20
2018-12-17T08:35:31.990Z,20.40
2018-12-17T08:36:32.005Z,20.80
2018-12-17T08:37:31.987Z,24.30
2018-12-17T08:38:31.951Z,25.90
2018-12-17T08:39:31.934Z,26.70
2018-12-17T08:40:31.961Z,21.50
2018-12-17T08:41:31.966Z,21.70
2018-12-17T08:42:32.004Z,23.80
2018-12-17T08:43:32.009Z,22.00
2018-12-17T08:44:31.881Z,21.20
2018-12-17T08:45:31.901Z,22.80
2018-12-17T08:46:31.903Z,23.70
2018-12-17T08:47:31.838Z,27.70
2018-12-17T08:48:31.829Z,27.80
2018-12-17T08:49:31.899Z,24.40
2018-12-17T08:50:31.834Z,26.80
2018-12-17T08:51:31.801Z,26.30
2018-12-17T08:52:31.842Z,22.60
2018-12-17T08:53:31.795Z,24.60
2018-12-17T08:54:31.829Z,21.90
2018-12-17T08:55:31.810Z,20.90
2018-12-17T08:56:31.748Z,23.70
2018-12-17T08:57:37.812Z,20.30
2018-12-17T08:58:32.731Z,22.50
2018-12-17T08:59:31.709Z,21.30
2018-12-17T09:00:31.805Z,22.00
2018-12-17T09:01:31.696Z,22.10
2018-12-17T09:02:31.710Z,22.20
2018-12-17T09:03:31.734Z,19.60
2018-12-17T09:04:31.662Z,19.20
2018-12-17T09:05:31.786Z,20.70
2018-12-17T09:06:31.888Z,20.60
2018-12-17T09:07:32.079Z,20.00
2018-12-17T09:08:31.640Z,21.40
2018-12-17T09:09:31.606Z,22.20
2018-12-17T09:10:31.596Z,21.00
2018-12-17T09:11:31.623Z,20.40
2018-12-17T09:12:31.861Z,20.80
2018-12-17T09:13:31.561Z,20.60
2018-12-17T09:14:31.558Z,20.60
2018-12-17T09:15:31.591Z,20.20
2018-12-17T09:16:31.538Z,20.60
2018-12-17T09:17:31.589Z,20.10
2018-12-17T09:18:31.532Z,20.40
2018-12-17T09:19:31.524Z,16.60
2018-12-17T09:20:32.131Z,20.50
2018-12-17T09:21:31.569Z,19.70
2018-12-17T09:22:31.501Z,17.50
2018-12-17T09:23:31.528Z,18.50
2018-12-17T09:24:31.441Z,17.20
2018-12-17T09:25:31.464Z,18.00
2018-12-17T09:26:31.425Z,19.30
2018-12-17T09:27:31.452Z,16.50
2018-12-17T09:28:31.405Z,18.00
2018-12-17T09:29:31.460Z,18.10
2018-12-17T09:30:31.397Z,18.90
2018-12-17T09:31:31.367Z,17.10
2018-12-17T09:32:31.374Z,14.70
2018-12-17T09:33:31.374Z,16.40
2018-12-17T09:34:31.420Z,15.70
2018-12-17T09:35:31.393Z,16.00
2018-12-17T09:36:31.428Z,16.50
2018-12-17T09:37:31.326Z,16.50
2018-12-17T09:38:31.328Z,17.20
2018-12-17T09:39:31.286Z,16.50
2018-12-17T09:40:31.408Z,18.30
2018-12-17T09:41:31.577Z,21.20
2018-12-17T09:42:31.252Z,18.00
2018-12-17T09:43:31.236Z,17.50
2018-12-17T09:44:31.247Z,17.50
2018-12-17T09:45:31.211Z,18.60
2018-12-17T09:46:31.220Z,19.70
2018-12-17T09:47:31.313Z,17.90
2018-12-17T09:48:31.182Z,15.80
2018-12-17T09:49:31.320Z,19.40
2018-12-17T09:50:31.196Z,18.10
2018-12-17T09:51:31.184Z,21.00
2018-12-17T09:52:31.295Z,18.40
2018-12-17T09:53:31.135Z,19.50
2018-12-17T09:54:31.210Z,17.80
2018-12-17T09:55:31.119Z,20.90
2018-12-17T09:56:31.153Z,18.50
2018-12-17T09:57:31.084Z,18.50
2018-12-17T09:58:31.182Z,20.40
2018-12-17T09:59:31.084Z,17.20
2018-12-17T10:00:31.221Z,17.10
2018-12-17T10:01:31.065Z,19.70
2018-12-17T10:02:31.048Z,18.50
2018-12-17T10:03:31.112Z,16.40
2018-12-17T10:04:31.044Z,17.10
2018-12-17T10:05:31.008Z,15.30
2018-12-17T10:06:31.073Z,16.50
2018-12-17T10:07:31.048Z,15.00
2018-12-17T10:08:31.016Z,14.30
2018-12-17T10:09:31.031Z,15.10
2018-12-17T10:10:30.979Z,16.00
2018-12-17T10:11:30.950Z,17.60
2018-12-17T10:12:30.944Z,20.40
2018-12-17T10:13:30.908Z,18.90
2018-12-17T10:14:30.961Z,19.10
2018-12-17T10:15:30.940Z,20.30
2018-12-17T10:16:30.891Z,19.80
2018-12-17T10:17:30.978Z,18.50
2018-12-17T10:18:36.667Z,18.40
2018-12-17T10:19:32.146Z,22.30
2018-12-17T10:20:30.836Z,23.10
2018-12-17T10:21:30.962Z,21.90
2018-12-17T10:22:30.851Z,22.70
2018-12-17T10:23:30.910Z,23.60
2018-12-17T10:24:30.790Z,25.80
2018-12-17T10:25:30.894Z,19.30
2018-12-17T10:26:30.842Z,21.10
2018-12-17T10:27:30.755Z,19.50
2018-12-17T10:28:30.801Z,20.50
2018-12-17T10:29:30.739Z,19.20
2018-12-17T10:30:32.707Z,19.70
2018-12-17T10:31:31.189Z,19.20
2018-12-17T10:32:30.788Z,19.40
2018-12-17T10:33:30.705Z,18.00
2018-12-17T10:34:30.679Z,16.00
2018-12-17T10:35:30.737Z,19.70
2018-12-17T10:36:30.680Z,17.70
2018-12-17T10:37:30.795Z,16.10
2018-12-17T10:38:30.705Z,16.10
2018-12-17T10:39:30.652Z,15.80
2018-12-17T10:40:30.628Z,16.60
2018-12-17T10:41:30.657Z,16.30
2018-12-17T10:42:30.697Z,14.70
2018-12-17T10:43:30.631Z,17.00
2018-12-17T10:44:30.578Z,16.20
2018-12-17T10:45:30.601Z,15.30
2018-12-17T10:46:30.660Z,16.60
2018-12-17T10:47:30.547Z,17.00
2018-12-17T10:48:30.599Z,16.00
2018-12-17T10:49:30.535Z,15.10
2018-12-17T10:50:30.587Z,14.00
2018-12-17T10:51:30.513Z,16.30
2018-12-17T10:52:30.494Z,13.40
2018-12-17T10:53:30.479Z,15.30
2018-12-17T10:54:30.470Z,17.90
2018-12-17T10:55:30.463Z,13.90
2018-12-17T10:56:30.508Z,13.90
2018-12-17T10:57:30.507Z,18.00
2018-12-17T10:58:30.433Z,15.70
2018-12-17T10:59:30.452Z,15.20
2018-12-17T11:00:30.464Z,13.60
2018-12-17T11:01:32.462Z,12.60
2018-12-17T11:02:30.415Z,14.20
2018-12-17T11:03:30.389Z,13.30
2018-12-17T11:04:30.365Z,12.90
2018-12-17T11:05:30.534Z,14.20
2018-12-17T11:06:30.789Z,14.90
2018-12-17T11:07:30.643Z,15.80
2018-12-17T11:08:31.713Z,16.70
2018-12-17T11:09:32.103Z,16.10
2018-12-17T11:10:30.576Z,13.00
2018-12-17T11:11:30.426Z,14.90
2018-12-17T11:12:31.594Z,13.10
2018-12-17T11:13:30.258Z,15.80
2018-12-17T11:14:30.245Z,14.10
2018-12-17T11:15:30.263Z,15.00
2018-12-17T11:16:30.229Z,14.10
2018-12-17T11:17:30.215Z,16.00
2018-12-17T11:18:30.359Z,15.70
2018-12-17T11:19:30.353Z,13.50
2018-12-17T11:20:30.303Z,15.60
2018-12-17T11:21:30.168Z,11.60
2018-12-17T11:22:30.180Z,12.60
2018-12-17T11:23:30.434Z,15.60
2018-12-17T11:24:30.149Z,11.20
2018-12-17T11:25:30.117Z,12.20
2018-12-17T11:26:30.110Z,13.20
2018-12-17T11:27:30.159Z,11.90
2018-12-17T11:28:30.088Z,12.80
2018-12-17T11:29:30.212Z,11.70
2018-12-17T11:30:30.075Z,11.00
2018-12-17T11:31:30.133Z,11.70
2018-12-17T11:32:30.071Z,11.20
2018-12-17T11:33:30.030Z,11.60
2018-12-17T11:34:30.050Z,9.90
2018-12-17T11:35:30.056Z,12.60
2018-12-17T11:36:30.018Z,9.50
2018-12-17T11:37:30.045Z,8.70
2018-12-17T11:38:29.992Z,13.70
2018-12-17T11:39:29.999Z,9.40
2018-12-17T11:40:30.143Z,8.50
2018-12-17T11:41:30.056Z,9.80
2018-12-17T11:42:29.973Z,10.90
2018-12-17T11:43:29.972Z,9.90
2018-12-17T11:44:29.957Z,10.00
2018-12-17T11:45:29.974Z,10.70
2018-12-17T11:46:29.973Z,7.90
2018-12-17T11:47:29.879Z,11.60
2018-12-17T11:48:29.939Z,10.80
2018-12-17T11:49:29.961Z,7.90
2018-12-17T11:50:29.922Z,9.20
2018-12-17T11:51:29.898Z,10.30
2018-12-17T11:52:29.849Z,9.20
2018-12-17T11:53:29.855Z,11.60
2018-12-17T11:54:29.795Z,10.60
2018-12-17T11:55:29.935Z,8.80
2018-12-17T11:56:29.777Z,6.90
2018-12-17T11:57:29.798Z,9.70
2018-12-17T11:58:29.793Z,10.30
2018-12-17T11:59:29.745Z,10.80
2018-12-17T12:00:29.740Z,7.20
2018-12-17T12:01:29.745Z,9.40
2018-12-17T12:02:29.906Z,9.80
2018-12-17T12:03:29.744Z,8.90
2018-12-17T12:04:29.679Z,9.70
2018-12-17T12:05:29.741Z,8.10
2018-12-17T12:06:29.954Z,8.60
2018-12-17T12:07:29.667Z,7.60
2018-12-17T12:08:29.635Z,9.40
2018-12-17T12:09:29.627Z,8.30
2018-12-17T12:10:29.647Z,9.00
2018-12-17T12:11:29.688Z,7.50
2018-12-17T12:12:29.651Z,7.00
2018-12-17T12:13:29.644Z,6.90
2018-12-17T12:14:29.591Z,9.00
2018-12-17T12:15:29.558Z,6.40
2018-12-17T12:16:29.554Z,6.20
2018-12-17T12:17:29.620Z,7.30
2018-12-17T12:18:29.538Z,6.90
2018-12-17T12:19:29.536Z,5.20
2018-12-17T12:20:29.518Z,6.90
2018-12-17T12:21:29.561Z,4.50
2018-12-17T12:22:29.487Z,5.40
2018-12-17T12:23:29.523Z,4.90
2018-12-17T12:24:29.468Z,4.50
2018-12-17T12:25:29.444Z,3.70
2018-12-17T12:26:29.443Z,6.30
2018-12-17T12:27:29.426Z,8.20
2018-12-17T12:28:29.430Z,4.80
2018-12-17T12:29:29.467Z,3.90
2018-12-17T12:30:29.399Z,5.10
2018-12-17T12:31:29.456Z,5.00
2018-12-17T12:32:29.375Z,5.20
2018-12-17T12:33:29.513Z,4.30
2018-12-17T12:34:29.455Z,3.90
2018-12-17T12:35:29.336Z,6.40
2018-12-17T12:36:29.346Z,5.00
2018-12-17T12:37:29.352Z,3.50
2018-12-17T12:38:29.317Z,6.10
2018-12-17T12:39:29.313Z,3.70
2018-12-17T12:40:29.333Z,4.50
2018-12-17T12:41:29.284Z,4.00
2018-12-17T12:42:29.258Z,4.20
2018-12-17T12:43:29.306Z,4.60
2018-12-17T12:44:29.239Z,5.70
2018-12-17T12:45:29.403Z,3.90
2018-12-17T12:46:29.215Z,5.40
2018-12-17T12:47:29.211Z,3.30
2018-12-17T12:48:29.219Z,4.00
2018-12-17T12:49:29.178Z,4.40
2018-12-17T12:50:29.350Z,3.70
2018-12-17T12:51:32.594Z,5.60
2018-12-17T12:52:29.154Z,2.70
2018-12-17T12:53:29.144Z,4.70
2018-12-17T12:54:29.139Z,3.40